sensor_id;sensor_type;location;lat;lon;timestamp;pressure;altitude;pressure_sealevel;temperature;humidity
8318;BME280;4196;48.926;8.964;2023-07-13T00:02:31;98999.44;;;19.22;63.51
8318;BME280;4196;48.926;8.964;2023-07-13T00:05:23;99002.75;;;19.27;63.58
8318;BME280;4196;48.926;8.964;2023-07-13T00:08:09;98949.91;;;18.91;63.41
8318;BME280;4196;48.926;8.964;2023-07-13T00:10:57;98992.16;;;19.06;64.64
8318;BME280;4196;48.926;8.964;2023-07-13T00:13:44;98994.66;;;19.10;63.75
8318;BME280;4196;48.926;8.964;2023-07-13T00:16:32;98964.91;;;18.87;63.78
8318;BME280;4196;48.926;8.964;2023-07-13T00:19:19;98981.91;;;19.00;63.34
8318;BME280;4196;48.926;8.964;2023-07-13T00:22:05;98962.66;;;18.78;63.61
8318;BME280;4196;48.926;8.964;2023-07-13T00:24:53;99003.47;;;19.09;63.31
8318;BME280;4196;48.926;8.964;2023-07-13T00:27:43;98932.59;;;18.62;63.34
8318;BME280;4196;48.926;8.964;2023-07-13T00:30:30;98956.59;;;18.76;63.10
8318;BME280;4196;48.926;8.964;2023-07-13T00:33:17;98978.22;;;18.82;63.77
8318;BME280;4196;48.926;8.964;2023-07-13T00:36:04;98962.78;;;18.73;63.42
8318;BME280;4196;48.926;8.964;2023-07-13T00:38:50;98966.97;;;18.79;63.70
8318;BME280;4196;48.926;8.964;2023-07-13T00:41:37;98937.97;;;18.58;62.95
8318;BME280;4196;48.926;8.964;2023-07-13T00:44:24;98991.25;;;18.84;63.56
8318;BME280;4196;48.926;8.964;2023-07-13T00:47:10;98988.06;;;18.76;64.00
8318;BME280;4196;48.926;8.964;2023-07-13T00:49:57;98961.94;;;18.48;64.46
8318;BME280;4196;48.926;8.964;2023-07-13T00:52:48;98969.13;;;18.43;65.33
8318;BME280;4196;48.926;8.964;2023-07-13T00:55:36;98981.66;;;18.34;65.82
8318;BME280;4196;48.926;8.964;2023-07-13T00:58:24;98974.09;;;18.27;66.40
8318;BME280;4196;48.926;8.964;2023-07-13T01:01:11;98957.81;;;18.17;66.44
8318;BME280;4196;48.926;8.964;2023-07-13T01:03:59;98989.19;;;18.19;67.18
8318;BME280;4196;48.926;8.964;2023-07-13T01:06:46;98982.78;;;18.02;67.77
8318;BME280;4196;48.926;8.964;2023-07-13T01:09:33;98976.03;;;17.95;68.30
8318;BME280;4196;48.926;8.964;2023-07-13T01:12:20;99007.06;;;18.07;69.06
8318;BME280;4196;48.926;8.964;2023-07-13T01:15:41;99005.63;;;17.99;69.30
8318;BME280;4196;48.926;8.964;2023-07-13T01:18:29;98992.88;;;17.88;70.24
8318;BME280;4196;48.926;8.964;2023-07-13T01:21:16;98983.91;;;17.67;69.34
8318;BME280;4196;48.926;8.964;2023-07-13T01:24:03;99008.09;;;17.77;69.82
8318;BME280;4196;48.926;8.964;2023-07-13T01:26:49;98983.63;;;17.50;71.84
8318;BME280;4196;48.926;8.964;2023-07-13T01:29:37;99009.47;;;17.60;71.32
8318;BME280;4196;48.926;8.964;2023-07-13T01:32:28;99002.22;;;17.41;72.53
8318;BME280;4196;48.926;8.964;2023-07-13T01:35:15;98977.69;;;17.17;73.58
8318;BME280;4196;48.926;8.964;2023-07-13T01:38:04;99003.66;;;17.23;75.17
8318;BME280;4196;48.926;8.964;2023-07-13T01:40:51;99013.47;;;17.16;77.77
8318;BME280;4196;48.926;8.964;2023-07-13T01:43:38;98973.19;;;16.92;77.07
8318;BME280;4196;48.926;8.964;2023-07-13T01:46:26;99007.63;;;17.06;78.28
8318;BME280;4196;48.926;8.964;2023-07-13T01:49:12;99006.81;;;17.04;79.04
8318;BME280;4196;48.926;8.964;2023-07-13T01:51:59;98994.34;;;16.84;80.51
8318;BME280;4196;48.926;8.964;2023-07-13T01:54:45;99013.03;;;17.00;79.39
8318;BME280;4196;48.926;8.964;2023-07-13T01:57:32;98980.75;;;16.72;79.79
8318;BME280;4196;48.926;8.964;2023-07-13T02:00:19;98978.03;;;16.75;80.12
8318;BME280;4196;48.926;8.964;2023-07-13T02:03:06;99003.00;;;16.86;81.45
8318;BME280;4196;48.926;8.964;2023-07-13T02:05:52;98994.88;;;16.64;82.78
8318;BME280;4196;48.926;8.964;2023-07-13T02:08:40;99005.44;;;16.61;85.71
8318;BME280;4196;48.926;8.964;2023-07-13T02:11:27;99000.78;;;16.40;87.23
8318;BME280;4196;48.926;8.964;2023-07-13T02:14:19;98982.00;;;16.26;87.17
8318;BME280;4196;48.926;8.964;2023-07-13T02:17:05;99018.34;;;16.35;87.64
8318;BME280;4196;48.926;8.964;2023-07-13T02:19:52;98985.06;;;16.09;89.75
8318;BME280;4196;48.926;8.964;2023-07-13T02:22:38;98967.94;;;15.99;88.27
8318;BME280;4196;48.926;8.964;2023-07-13T02:25:25;98973.44;;;15.88;87.91
8318;BME280;4196;48.926;8.964;2023-07-13T02:28:13;98991.03;;;15.80;91.43
8318;BME280;4196;48.926;8.964;2023-07-13T02:31:12;99011.88;;;15.81;92.89
8318;BME280;4196;48.926;8.964;2023-07-13T02:33:59;98978.63;;;15.52;93.56
8318;BME280;4196;48.926;8.964;2023-07-13T02:36:46;98951.19;;;15.36;95.32
8318;BME280;4196;48.926;8.964;2023-07-13T02:39:32;99010.66;;;15.57;95.82
8318;BME280;4196;48.926;8.964;2023-07-13T02:42:19;99002.19;;;15.49;94.54
8318;BME280;4196;48.926;8.964;2023-07-13T02:45:06;99029.78;;;15.59;94.00
8318;BME280;4196;48.926;8.964;2023-07-13T02:47:54;99040.28;;;15.56;95.28
8318;BME280;4196;48.926;8.964;2023-07-13T02:50:41;99034.44;;;15.46;97.79
8318;BME280;4196;48.926;8.964;2023-07-13T02:53:27;99034.69;;;15.36;98.50
8318;BME280;4196;48.926;8.964;2023-07-13T02:56:14;99039.00;;;15.35;97.41
8318;BME280;4196;48.926;8.964;2023-07-13T02:59:03;99001.41;;;15.07;99.03
8318;BME280;4196;48.926;8.964;2023-07-13T03:01:50;99035.88;;;15.19;99.03
8318;BME280;4196;48.926;8.964;2023-07-13T03:04:37;99063.28;;;15.39;99.09
8318;BME280;4196;48.926;8.964;2023-07-13T03:07:23;98989.56;;;14.90;98.52
8318;BME280;4196;48.926;8.964;2023-07-13T03:10:12;99025.00;;;15.01;100.00
8318;BME280;4196;48.926;8.964;2023-07-13T03:13:06;99050.00;;;15.09;100.00
8318;BME280;4196;48.926;8.964;2023-07-13T03:15:53;99028.81;;;14.84;100.00
8318;BME280;4196;48.926;8.964;2023-07-13T03:18:40;99027.88;;;14.88;100.00
8318;BME280;4196;48.926;8.964;2023-07-13T03:21:28;99016.75;;;14.79;100.00
8318;BME280;4196;48.926;8.964;2023-07-13T03:24:15;99019.56;;;14.69;100.00
8318;BME280;4196;48.926;8.964;2023-07-13T03:27:04;99060.13;;;14.83;100.00
8318;BME280;4196;48.926;8.964;2023-07-13T03:29:52;99045.53;;;14.74;100.00
8318;BME280;4196;48.926;8.964;2023-07-13T03:32:38;99030.97;;;14.64;100.00
8318;BME280;4196;48.926;8.964;2023-07-13T03:35:25;99063.88;;;14.69;100.00
8318;BME280;4196;48.926;8.964;2023-07-13T03:38:12;99051.91;;;14.59;100.00
8318;BME280;4196;48.926;8.964;2023-07-13T03:40:59;99059.63;;;14.64;100.00
8318;BME280;4196;48.926;8.964;2023-07-13T03:43:46;99076.81;;;14.74;100.00
8318;BME280;4196;48.926;8.964;2023-07-13T03:46:36;99065.75;;;14.61;100.00
8318;BME280;4196;48.926;8.964;2023-07-13T03:49:22;99005.47;;;14.33;100.00
8318;BME280;4196;48.926;8.964;2023-07-13T03:52:08;99064.88;;;14.61;100.00
8318;BME280;4196;48.926;8.964;2023-07-13T03:54:55;99061.38;;;14.63;100.00
8318;BME280;4196;48.926;8.964;2023-07-13T03:57:42;99080.91;;;14.86;100.00
8318;BME280;4196;48.926;8.964;2023-07-13T04:00:28;99098.09;;;14.96;100.00
8318;BME280;4196;48.926;8.964;2023-07-13T04:03:15;99089.50;;;14.91;100.00
8318;BME280;4196;48.926;8.964;2023-07-13T04:06:04;99088.69;;;14.89;100.00
8318;BME280;4196;48.926;8.964;2023-07-13T04:08:53;99074.94;;;14.81;100.00
8318;BME280;4196;48.926;8.964;2023-07-13T04:11:40;99089.66;;;14.85;100.00
8318;BME280;4196;48.926;8.964;2023-07-13T04:14:27;99109.25;;;15.04;100.00
8318;BME280;4196;48.926;8.964;2023-07-13T04:17:13;99087.00;;;14.86;100.00
8318;BME280;4196;48.926;8.964;2023-07-13T04:20:00;99115.38;;;15.02;100.00
8318;BME280;4196;48.926;8.964;2023-07-13T04:22:47;99110.09;;;15.06;100.00
8318;BME280;4196;48.926;8.964;2023-07-13T04:25:33;99066.28;;;14.79;100.00
8318;BME280;4196;48.926;8.964;2023-07-13T04:28:22;99099.81;;;14.97;100.00
8318;BME280;4196;48.926;8.964;2023-07-13T04:31:09;99103.97;;;15.06;100.00
8318;BME280;4196;48.926;8.964;2023-07-13T04:33:55;99085.88;;;14.98;100.00
8318;BME280;4196;48.926;8.964;2023-07-13T04:36:42;99123.56;;;15.27;100.00
8318;BME280;4196;48.926;8.964;2023-07-13T04:39:29;99117.28;;;15.37;100.00
8318;BME280;4196;48.926;8.964;2023-07-13T04:42:15;99063.00;;;15.12;100.00
8318;BME280;4196;48.926;8.964;2023-07-13T04:45:02;99105.59;;;15.53;100.00
8318;BME280;4196;48.926;8.964;2023-07-13T04:47:48;99103.56;;;15.67;100.00
8318;BME280;4196;48.926;8.964;2023-07-13T04:50:38;99115.53;;;15.78;100.00
8318;BME280;4196;48.926;8.964;2023-07-13T04:53:25;99124.69;;;15.96;100.00
8318;BME280;4196;48.926;8.964;2023-07-13T04:56:13;99090.38;;;15.74;100.00
8318;BME280;4196;48.926;8.964;2023-07-13T04:58:59;99093.59;;;15.85;100.00
8318;BME280;4196;48.926;8.964;2023-07-13T05:01:48;99087.03;;;16.04;100.00
8318;BME280;4196;48.926;8.964;2023-07-13T05:04:34;99105.31;;;16.40;100.00
8318;BME280;4196;48.926;8.964;2023-07-13T05:07:21;99102.56;;;16.79;96.50
8318;BME280;4196;48.926;8.964;2023-07-13T05:10:08;99091.06;;;17.15;91.64
8318;BME280;4196;48.926;8.964;2023-07-13T05:12:55;99104.09;;;17.48;88.90
8318;BME280;4196;48.926;8.964;2023-07-13T05:15:41;99128.78;;;17.69;87.07
8318;BME280;4196;48.926;8.964;2023-07-13T05:18:29;99103.06;;;17.82;85.72
8318;BME280;4196;48.926;8.964;2023-07-13T05:21:15;99133.06;;;18.01;83.93
8318;BME280;4196;48.926;8.964;2023-07-13T05:24:02;99106.13;;;17.68;83.72
8318;BME280;4196;48.926;8.964;2023-07-13T05:27:05;99112.59;;;17.56;85.58
8318;BME280;4196;48.926;8.964;2023-07-13T05:29:51;99103.13;;;17.51;87.67
8318;BME280;4196;48.926;8.964;2023-07-13T05:32:38;99100.69;;;17.45;89.65
8318;BME280;4196;48.926;8.964;2023-07-13T05:35:25;99081.97;;;17.29;91.05
8318;BME280;4196;48.926;8.964;2023-07-13T05:38:12;99124.94;;;17.51;90.55
8318;BME280;4196;48.926;8.964;2023-07-13T05:40:58;99095.19;;;17.54;88.64
8318;BME280;4196;48.926;8.964;2023-07-13T05:43:48;99150.22;;;18.10;86.12
8318;BME280;4196;48.926;8.964;2023-07-13T05:46:35;99123.75;;;18.44;83.23
8318;BME280;4196;48.926;8.964;2023-07-13T05:49:22;99113.31;;;18.69;79.67
8318;BME280;4196;48.926;8.964;2023-07-13T05:52:09;99104.16;;;18.81;75.54
8318;BME280;4196;48.926;8.964;2023-07-13T05:54:56;99110.13;;;18.86;72.20
8318;BME280;4196;48.926;8.964;2023-07-13T05:57:42;99113.47;;;19.38;69.85
8318;BME280;4196;48.926;8.964;2023-07-13T06:00:29;99134.50;;;20.49;64.42
8318;BME280;4196;48.926;8.964;2023-07-13T06:03:16;99123.47;;;20.82;63.50
8318;BME280;4196;48.926;8.964;2023-07-13T06:06:02;99150.97;;;20.75;63.20
8318;BME280;4196;48.926;8.964;2023-07-13T06:08:49;99121.47;;;20.24;65.13
8318;BME280;4196;48.926;8.964;2023-07-13T06:11:35;99100.84;;;19.71;66.93
8318;BME280;4196;48.926;8.964;2023-07-13T06:14:22;99136.34;;;19.58;69.83
8318;BME280;4196;48.926;8.964;2023-07-13T06:17:08;99165.97;;;19.62;71.03
8318;BME280;4196;48.926;8.964;2023-07-13T06:19:55;99149.03;;;19.47;70.92
8318;BME280;4196;48.926;8.964;2023-07-13T06:22:41;99143.44;;;19.56;70.70
8318;BME280;4196;48.926;8.964;2023-07-13T06:25:28;99146.72;;;19.61;68.81
8318;BME280;4196;48.926;8.964;2023-07-13T06:28:15;99167.25;;;19.75;66.63
8318;BME280;4196;48.926;8.964;2023-07-13T06:31:02;99167.38;;;19.72;65.86
8318;BME280;4196;48.926;8.964;2023-07-13T06:33:50;99151.25;;;19.58;66.17
8318;BME280;4196;48.926;8.964;2023-07-13T06:36:37;99151.78;;;19.67;66.56
8318;BME280;4196;48.926;8.964;2023-07-13T06:39:24;99173.72;;;20.12;65.48
8318;BME280;4196;48.926;8.964;2023-07-13T06:42:11;99181.91;;;20.26;63.93
8318;BME280;4196;48.926;8.964;2023-07-13T06:45:00;99165.44;;;20.21;62.43
8318;BME280;4196;48.926;8.964;2023-07-13T06:47:46;99182.38;;;20.36;59.99
8318;BME280;4196;48.926;8.964;2023-07-13T06:50:34;99177.50;;;20.48;58.92
8318;BME280;4196;48.926;8.964;2023-07-13T06:53:20;99195.69;;;20.75;55.87
8318;BME280;4196;48.926;8.964;2023-07-13T06:56:07;99177.28;;;20.75;55.49
8318;BME280;4196;48.926;8.964;2023-07-13T06:58:54;99203.09;;;21.08;55.77
8318;BME280;4196;48.926;8.964;2023-07-13T07:01:40;99182.41;;;21.19;54.64
8318;BME280;4196;48.926;8.964;2023-07-13T07:04:27;99206.91;;;21.41;53.61
8318;BME280;4196;48.926;8.964;2023-07-13T07:07:13;99183.81;;;21.46;54.06
8318;BME280;4196;48.926;8.964;2023-07-13T07:10:00;99212.44;;;21.75;51.39
8318;BME280;4196;48.926;8.964;2023-07-13T07:12:47;99187.50;;;21.63;50.67
8318;BME280;4196;48.926;8.964;2023-07-13T07:15:35;99215.34;;;21.68;50.63
8318;BME280;4196;48.926;8.964;2023-07-13T07:18:21;99201.66;;;21.60;50.65
8318;BME280;4196;48.926;8.964;2023-07-13T07:21:08;99187.91;;;21.54;50.47
8318;BME280;4196;48.926;8.964;2023-07-13T07:23:55;99171.31;;;21.52;49.05
8318;BME280;4196;48.926;8.964;2023-07-13T07:26:42;99207.09;;;21.76;49.34
8318;BME280;4196;48.926;8.964;2023-07-13T07:29:31;99193.34;;;21.69;50.37
8318;BME280;4196;48.926;8.964;2023-07-13T07:32:20;99188.06;;;21.69;49.41
8318;BME280;4196;48.926;8.964;2023-07-13T07:35:10;99202.47;;;21.81;49.70
8318;BME280;4196;48.926;8.964;2023-07-13T07:37:56;99210.59;;;21.95;49.00
8318;BME280;4196;48.926;8.964;2023-07-13T07:40:43;99197.53;;;22.11;49.30
8318;BME280;4196;48.926;8.964;2023-07-13T07:43:33;99210.53;;;22.16;48.87
8318;BME280;4196;48.926;8.964;2023-07-13T07:46:19;99213.69;;;22.24;47.58
8318;BME280;4196;48.926;8.964;2023-07-13T07:49:06;99200.53;;;22.04;49.72
8318;BME280;4196;48.926;8.964;2023-07-13T07:51:53;99215.28;;;22.27;48.56
8318;BME280;4196;48.926;8.964;2023-07-13T07:54:39;99186.94;;;22.13;45.22
8318;BME280;4196;48.926;8.964;2023-07-13T07:57:29;99191.41;;;22.11;48.21
8318;BME280;4196;48.926;8.964;2023-07-13T08:00:35;99169.34;;;21.94;47.05
8318;BME280;4196;48.926;8.964;2023-07-13T08:03:42;99212.09;;;22.20;46.61
8318;BME280;4196;48.926;8.964;2023-07-13T08:06:32;99200.16;;;22.11;47.65
8318;BME280;4196;48.926;8.964;2023-07-13T08:09:22;99195.13;;;22.26;46.83
8318;BME280;4196;48.926;8.964;2023-07-13T08:12:09;99210.16;;;22.60;44.35
8318;BME280;4196;48.926;8.964;2023-07-13T08:14:58;99217.25;;;22.40;45.26
8318;BME280;4196;48.926;8.964;2023-07-13T08:17:48;99223.28;;;22.25;44.05
8318;BME280;4196;48.926;8.964;2023-07-13T08:20:38;99206.28;;;22.31;43.73
8318;BME280;4196;48.926;8.964;2023-07-13T08:23:25;99205.81;;;22.04;44.73
8318;BME280;4196;48.926;8.964;2023-07-13T08:26:12;99222.94;;;22.14;45.75
8318;BME280;4196;48.926;8.964;2023-07-13T08:28:58;99216.84;;;22.12;46.42
8318;BME280;4196;48.926;8.964;2023-07-13T08:31:44;99225.44;;;22.17;45.17
8318;BME280;4196;48.926;8.964;2023-07-13T08:34:31;99230.34;;;22.06;45.14
8318;BME280;4196;48.926;8.964;2023-07-13T08:37:19;99223.91;;;22.11;45.27
8318;BME280;4196;48.926;8.964;2023-07-13T08:40:09;99190.97;;;22.01;44.23
8318;BME280;4196;48.926;8.964;2023-07-13T08:43:00;99220.53;;;22.46;44.75
8318;BME280;4196;48.926;8.964;2023-07-13T08:45:50;99194.28;;;22.25;45.35
8318;BME280;4196;48.926;8.964;2023-07-13T08:48:44;99230.38;;;22.42;44.83
8318;BME280;4196;48.926;8.964;2023-07-13T08:51:40;99231.34;;;22.22;46.26
8318;BME280;4196;48.926;8.964;2023-07-13T08:54:32;99229.50;;;22.24;45.18
8318;BME280;4196;48.926;8.964;2023-07-13T08:57:26;99218.16;;;22.22;43.40
8318;BME280;4196;48.926;8.964;2023-07-13T09:00:16;99162.25;;;21.57;43.78
8318;BME280;4196;48.926;8.964;2023-07-13T09:03:05;99216.50;;;22.01;45.32
8318;BME280;4196;48.926;8.964;2023-07-13T09:05:59;99195.72;;;21.94;44.62
8318;BME280;4196;48.926;8.964;2023-07-13T09:09:09;99207.38;;;22.27;42.92
8318;BME280;4196;48.926;8.964;2023-07-13T09:14:54;99228.19;;;22.69;44.24
8318;BME280;4196;48.926;8.964;2023-07-13T09:17:51;99221.03;;;22.88;43.57
8318;BME280;4196;48.926;8.964;2023-07-13T09:20:58;99227.66;;;22.97;43.96
8318;BME280;4196;48.926;8.964;2023-07-13T09:23:47;99206.34;;;23.02;44.26
8318;BME280;4196;48.926;8.964;2023-07-13T09:26:33;99192.88;;;23.06;41.78
8318;BME280;4196;48.926;8.964;2023-07-13T09:29:27;99230.06;;;23.19;43.54
8318;BME280;4196;48.926;8.964;2023-07-13T09:32:18;99178.44;;;22.96;43.47
8318;BME280;4196;48.926;8.964;2023-07-13T09:35:16;99225.72;;;23.35;42.92
8318;BME280;4196;48.926;8.964;2023-07-13T09:38:11;99232.59;;;23.38;43.49
8318;BME280;4196;48.926;8.964;2023-07-13T09:46:55;99217.66;;;23.54;41.30
8318;BME280;4196;48.926;8.964;2023-07-13T09:49:41;99200.69;;;23.43;43.57
8318;BME280;4196;48.926;8.964;2023-07-13T09:52:45;99216.13;;;23.68;41.78
8318;BME280;4196;48.926;8.964;2023-07-13T09:55:38;99196.78;;;23.66;42.21
8318;BME280;4196;48.926;8.964;2023-07-13T09:58:29;99195.63;;;23.71;41.82
8318;BME280;4196;48.926;8.964;2023-07-13T10:01:34;99194.44;;;23.77;42.05
8318;BME280;4196;48.926;8.964;2023-07-13T10:04:34;99185.34;;;23.98;40.90
8318;BME280;4196;48.926;8.964;2023-07-13T10:07:22;99212.03;;;24.25;40.75
8318;BME280;4196;48.926;8.964;2023-07-13T10:10:18;99207.94;;;24.35;40.99
8318;BME280;4196;48.926;8.964;2023-07-13T10:13:25;99205.06;;;24.40;40.44
8318;BME280;4196;48.926;8.964;2023-07-13T10:16:13;99162.38;;;24.15;38.93
8318;BME280;4196;48.926;8.964;2023-07-13T10:19:22;99217.84;;;24.48;40.31
8318;BME280;4196;48.926;8.964;2023-07-13T10:25:32;99193.00;;;24.19;40.47
8318;BME280;4196;48.926;8.964;2023-07-13T10:28:31;99226.06;;;24.27;39.29
8318;BME280;4196;48.926;8.964;2023-07-13T10:31:19;99213.91;;;24.07;39.55
8318;BME280;4196;48.926;8.964;2023-07-13T10:34:09;99216.50;;;24.09;41.54
8318;BME280;4196;48.926;8.964;2023-07-13T10:36:57;99215.47;;;24.27;37.93
8318;BME280;4196;48.926;8.964;2023-07-13T10:39:45;99215.97;;;24.34;37.77
8318;BME280;4196;48.926;8.964;2023-07-13T10:42:45;99220.88;;;24.42;37.75
8318;BME280;4196;48.926;8.964;2023-07-13T10:45:34;99213.00;;;24.56;36.89
8318;BME280;4196;48.926;8.964;2023-07-13T10:48:23;99175.78;;;24.27;38.27
8318;BME280;4196;48.926;8.964;2023-07-13T10:51:14;99194.19;;;24.45;38.55
8318;BME280;4196;48.926;8.964;2023-07-13T10:54:12;99182.25;;;24.53;37.61
8318;BME280;4196;48.926;8.964;2023-07-13T11:02:59;99166.47;;;24.66;36.50
8318;BME280;4196;48.926;8.964;2023-07-13T11:05:51;99161.81;;;24.86;35.92
8318;BME280;4196;48.926;8.964;2023-07-13T11:08:52;99185.19;;;25.23;34.75
8318;BME280;4196;48.926;8.964;2023-07-13T11:11:39;99132.88;;;24.52;36.51
8318;BME280;4196;48.926;8.964;2023-07-13T11:14:34;99148.00;;;24.50;37.78
8318;BME280;4196;48.926;8.964;2023-07-13T11:17:37;99163.81;;;24.66;36.22
8318;BME280;4196;48.926;8.964;2023-07-13T11:20:35;99144.72;;;24.61;36.53
8318;BME280;4196;48.926;8.964;2023-07-13T11:23:31;99188.53;;;24.97;36.29
8318;BME280;4196;48.926;8.964;2023-07-13T11:29:37;99173.84;;;24.91;36.01
8318;BME280;4196;48.926;8.964;2023-07-13T11:32:30;99174.28;;;24.83;36.99
8318;BME280;4196;48.926;8.964;2023-07-13T11:35:23;99170.91;;;24.96;35.33
8318;BME280;4196;48.926;8.964;2023-07-13T11:38:17;99167.50;;;24.94;36.71
8318;BME280;4196;48.926;8.964;2023-07-13T11:41:10;99168.44;;;25.07;36.49
8318;BME280;4196;48.926;8.964;2023-07-13T11:44:13;99160.59;;;25.05;37.20
8318;BME280;4196;48.926;8.964;2023-07-13T11:47:08;99171.56;;;25.15;35.56
8318;BME280;4196;48.926;8.964;2023-07-13T11:49:57;99154.41;;;25.21;34.85
8318;BME280;4196;48.926;8.964;2023-07-13T11:52:44;99133.16;;;25.06;34.38
8318;BME280;4196;48.926;8.964;2023-07-13T11:55:31;99170.22;;;25.37;33.44
8318;BME280;4196;48.926;8.964;2023-07-13T11:58:21;99166.63;;;25.38;34.42
8318;BME280;4196;48.926;8.964;2023-07-13T12:01:26;99156.78;;;25.40;33.92
8318;BME280;4196;48.926;8.964;2023-07-13T12:04:25;99175.44;;;25.38;34.92
8318;BME280;4196;48.926;8.964;2023-07-13T12:07:18;99172.97;;;25.35;35.01
8318;BME280;4196;48.926;8.964;2023-07-13T12:10:21;99171.63;;;25.57;35.56
8318;BME280;4196;48.926;8.964;2023-07-13T12:13:08;99132.34;;;25.49;33.16
8318;BME280;4196;48.926;8.964;2023-07-13T12:15:56;99172.97;;;25.92;33.23
8318;BME280;4196;48.926;8.964;2023-07-13T12:18:44;99164.34;;;25.74;31.38
8318;BME280;4196;48.926;8.964;2023-07-13T12:21:38;99163.19;;;25.64;32.71
8318;BME280;4196;48.926;8.964;2023-07-13T12:24:26;99168.13;;;25.85;35.40
8318;BME280;4196;48.926;8.964;2023-07-13T12:27:20;99160.16;;;25.85;31.40
8318;BME280;4196;48.926;8.964;2023-07-13T12:30:31;99173.41;;;25.99;33.69
8318;BME280;4196;48.926;8.964;2023-07-13T12:33:24;99133.69;;;25.97;33.27
8318;BME280;4196;48.926;8.964;2023-07-13T12:36:12;99171.00;;;26.36;31.83
8318;BME280;4196;48.926;8.964;2023-07-13T12:39:16;99172.97;;;26.19;33.01
8318;BME280;4196;48.926;8.964;2023-07-13T12:45:26;99171.09;;;26.48;31.92
8318;BME280;4196;48.926;8.964;2023-07-13T12:48:16;99159.84;;;26.04;32.43
8318;BME280;4196;48.926;8.964;2023-07-13T12:51:13;99137.59;;;25.92;33.82
8318;BME280;4196;48.926;8.964;2023-07-13T12:54:13;99151.94;;;26.16;32.84
8318;BME280;4196;48.926;8.964;2023-07-13T12:57:01;99137.63;;;26.19;32.87
8318;BME280;4196;48.926;8.964;2023-07-13T12:59:52;99138.94;;;26.39;32.91
8318;BME280;4196;48.926;8.964;2023-07-13T13:02:39;99166.56;;;26.63;32.71
8318;BME280;4196;48.926;8.964;2023-07-13T13:05:26;99156.66;;;26.65;32.79
8318;BME280;4196;48.926;8.964;2023-07-13T13:08:14;99129.69;;;26.84;32.84
8318;BME280;4196;48.926;8.964;2023-07-13T13:11:03;99154.91;;;26.91;31.93
8318;BME280;4196;48.926;8.964;2023-07-13T13:13:51;99114.06;;;26.80;32.39
8318;BME280;4196;48.926;8.964;2023-07-13T13:16:46;99170.81;;;27.18;30.46
8318;BME280;4196;48.926;8.964;2023-07-13T13:19:35;99156.44;;;27.34;31.25
8318;BME280;4196;48.926;8.964;2023-07-13T13:22:22;99138.44;;;27.25;29.39
8318;BME280;4196;48.926;8.964;2023-07-13T13:25:14;99176.22;;;27.55;28.95
8318;BME280;4196;48.926;8.964;2023-07-13T13:28:01;99175.34;;;27.42;28.77
8318;BME280;4196;48.926;8.964;2023-07-13T13:30:48;99156.66;;;27.31;29.17
8318;BME280;4196;48.926;8.964;2023-07-13T13:33:35;99159.19;;;27.45;30.84
8318;BME280;4196;48.926;8.964;2023-07-13T13:36:23;99140.47;;;27.34;30.78
8318;BME280;4196;48.926;8.964;2023-07-13T13:39:29;99172.69;;;27.42;30.44
8318;BME280;4196;48.926;8.964;2023-07-13T13:42:19;99113.56;;;27.00;31.77
8318;BME280;4196;48.926;8.964;2023-07-13T13:45:09;99136.13;;;27.20;30.86
8318;BME280;4196;48.926;8.964;2023-07-13T13:47:56;99133.13;;;27.37;30.88
8318;BME280;4196;48.926;8.964;2023-07-13T13:50:43;99115.03;;;27.42;30.24
8318;BME280;4196;48.926;8.964;2023-07-13T13:53:29;99149.31;;;27.47;29.92
8318;BME280;4196;48.926;8.964;2023-07-13T13:56:18;99164.41;;;27.21;29.70
8318;BME280;4196;48.926;8.964;2023-07-13T13:59:05;99141.00;;;27.13;31.44
8318;BME280;4196;48.926;8.964;2023-07-13T14:01:52;99102.84;;;26.89;30.62
8318;BME280;4196;48.926;8.964;2023-07-13T14:04:39;99150.59;;;27.29;31.35
8318;BME280;4196;48.926;8.964;2023-07-13T14:07:26;99161.63;;;27.48;31.43
8318;BME280;4196;48.926;8.964;2023-07-13T14:10:17;99150.13;;;27.09;31.24
8318;BME280;4196;48.926;8.964;2023-07-13T14:13:07;99160.06;;;27.33;31.00
8318;BME280;4196;48.926;8.964;2023-07-13T14:16:01;99154.94;;;27.42;30.56
8318;BME280;4196;48.926;8.964;2023-07-13T14:18:49;99153.75;;;27.59;31.54
8318;BME280;4196;48.926;8.964;2023-07-13T14:21:35;99133.66;;;27.55;31.35
8318;BME280;4196;48.926;8.964;2023-07-13T14:24:22;99128.78;;;27.11;30.97
8318;BME280;4196;48.926;8.964;2023-07-13T14:27:10;99132.84;;;26.51;32.67
8318;BME280;4196;48.926;8.964;2023-07-13T14:29:57;99153.41;;;26.74;32.47
8318;BME280;4196;48.926;8.964;2023-07-13T14:32:43;99137.59;;;26.86;32.33
8318;BME280;4196;48.926;8.964;2023-07-13T14:35:31;99096.56;;;26.77;33.39
8318;BME280;4196;48.926;8.964;2023-07-13T14:38:19;99154.66;;;27.21;32.65
8318;BME280;4196;48.926;8.964;2023-07-13T14:41:07;99153.63;;;26.97;31.10
8318;BME280;4196;48.926;8.964;2023-07-13T14:43:54;99138.84;;;26.40;32.59
8318;BME280;4196;48.926;8.964;2023-07-13T14:46:42;99158.25;;;26.55;32.49
8318;BME280;4196;48.926;8.964;2023-07-13T14:49:40;99163.25;;;26.60;32.49
8318;BME280;4196;48.926;8.964;2023-07-13T14:52:27;99165.28;;;26.69;33.50
8318;BME280;4196;48.926;8.964;2023-07-13T14:55:18;99165.84;;;26.74;32.89
8318;BME280;4196;48.926;8.964;2023-07-13T14:58:05;99159.69;;;26.73;32.42
8318;BME280;4196;48.926;8.964;2023-07-13T15:00:52;99127.13;;;26.57;31.55
8318;BME280;4196;48.926;8.964;2023-07-13T15:03:45;99155.22;;;26.74;31.91
8318;BME280;4196;48.926;8.964;2023-07-13T15:06:52;99122.88;;;26.27;31.22
8318;BME280;4196;48.926;8.964;2023-07-13T15:09:38;99154.19;;;26.22;33.28
8318;BME280;4196;48.926;8.964;2023-07-13T15:12:25;99129.91;;;26.01;33.28
8318;BME280;4196;48.926;8.964;2023-07-13T15:15:11;99156.19;;;26.19;33.26
8318;BME280;4196;48.926;8.964;2023-07-13T15:17:58;99131.50;;;26.04;32.97
8318;BME280;4196;48.926;8.964;2023-07-13T15:20:46;99152.81;;;26.02;32.33
8318;BME280;4196;48.926;8.964;2023-07-13T15:23:33;99115.84;;;25.58;34.28
8318;BME280;4196;48.926;8.964;2023-07-13T15:26:19;99127.69;;;25.67;34.82
8318;BME280;4196;48.926;8.964;2023-07-13T15:29:06;99149.16;;;25.62;32.66
8318;BME280;4196;48.926;8.964;2023-07-13T15:31:53;99113.31;;;25.28;34.94
8318;BME280;4196;48.926;8.964;2023-07-13T15:34:39;99142.00;;;25.36;35.56
8318;BME280;4196;48.926;8.964;2023-07-13T15:37:27;99142.84;;;25.36;36.12
8318;BME280;4196;48.926;8.964;2023-07-13T15:40:14;99160.56;;;25.50;34.20
8318;BME280;4196;48.926;8.964;2023-07-13T15:43:01;99143.22;;;25.59;34.40
8318;BME280;4196;48.926;8.964;2023-07-13T15:45:47;99159.03;;;25.74;33.78